Flight Track Log - Related Links

Times and Time Zones

All times are in EDT time to prevent confusion due to time zone crossing. See the N498QS flight status page for this flight to view local times or setup timezone preferences in your user account.

Time Position Orientation Groundspeed Altitude Reporting Facility
EDT Latitude Longitude Course Direction KTS MPH feet Rate Location/Type
Fri 05:00:40 PM 30.4447 -86.2850 North 290 334 7,400  Level Jacksonville Center
Fri 05:01:40 PM 30.5111 -86.2272 37° Northeast 290 334 9,700 2,350 Climbing Jacksonville Center
Fri 05:02:40 PM 30.5814 -86.1669 36° Northeast 297 342 12,100 2,350 Climbing Jacksonville Center
Fri 05:03:00 PM 31.3270 -86.3862 North  Level FlightAware Approximate
Fri 05:03:40 PM 30.6606 -86.0972 37° Northeast 327 376 14,400  Level Jacksonville Center
Fri 05:04:00 PM 31.4426 -86.3701 North  Level FlightAware Approximate
Fri 05:04:40 PM 30.7417 -86.0200 39° Northeast 355 409 16,700  Level Jacksonville Center
Fri 05:05:00 PM 31.5588 -86.3667 North  Level FlightAware Approximate
Fri 05:05:40 PM 30.8453 -85.9631 25° Northeast 365 420 18,800  Level Jacksonville Center
Fri 05:06:40 PM 30.9508 -85.9228 18° North 378 435 21,100 2,100 Climbing Jacksonville Center
Fri 05:07:40 PM 31.0625 -85.8756 20° North 401 461 23,000 1,400 Climbing Jacksonville Center
Fri 05:08:40 PM 31.1656 -85.8400 16° North 414 476 23,900 1,700 Climbing Jacksonville Center
Fri 05:09:40 PM 31.2794 -85.7997 17° North 428 493 26,400 2,250 Climbing Jacksonville Center
Fri 05:10:40 PM 31.3953 -85.7497 20° North 428 493 28,400 1,691 Climbing Jacksonville Center
Fri 05:12:41 PM 31.6381 -85.6536 19° North 438 504 31,500 1,558 Climbing Atlanta Center
Fri 05:13:41 PM 31.7575 -85.6094 17° North 450 518 33,100 1,650 Climbing Atlanta Center
Fri 05:14:41 PM 31.8772 -85.5575 20° North 450 518 34,800 1,700 Climbing Atlanta Center
Fri 05:15:41 PM 32.0008 -85.5108 18° North 450 518 36,500 1,550 Climbing Atlanta Center
Fri 05:16:41 PM 32.1183 -85.4636 19° North 450 518 37,900 1,200 Climbing Atlanta Center
Fri 05:17:41 PM 32.2419 -85.4142 19° North 450 518 38,900 1,100 Climbing Atlanta Center
Fri 05:18:41 PM 32.3761 -85.3619 18° North 456 525 40,100 1,050 Climbing Atlanta Center
Fri 05:19:41 PM 32.4978 -85.3144 18° North 461 531 41,000 450 Climbing Atlanta Center
Fri 05:20:41 PM 32.6192 -85.2619 20° North 461 531 41,000  Level Atlanta Center
Fri 05:21:41 PM 32.7431 -85.2094 20° North 467 537 41,000  Level Atlanta Center
Fri 05:22:41 PM 32.8353 -85.1636 23° Northeast 461 531 41,000  Level Atlanta Center
Fri 05:23:41 PM 32.9756 -85.0986 21° North 447 514 41,000  Level Atlanta Center
Fri 05:24:41 PM 33.0972 -85.0431 21° North 454 522 41,000  Level Atlanta Center
Fri 05:25:41 PM 33.2125 -84.9822 24° Northeast 454 522 41,000  Level Atlanta Center
Fri 05:26:41 PM 33.3319 -84.9239 22° Northeast 454 522 41,000  Level Atlanta Center
Fri 05:27:41 PM 33.4492 -84.8631 23° Northeast 459 528 41,000  Level Atlanta Center
Fri 05:28:41 PM 33.5728 -84.8042 22° Northeast 459 528 41,000  Level Atlanta Center
Fri 05:29:41 PM 33.6775 -84.7478 24° Northeast 459 528 41,000  Level Atlanta Center
Fri 05:30:41 PM 33.7989 -84.6864 23° Northeast 459 528 41,000  Level Atlanta Center
Fri 05:31:41 PM 33.9181 -84.6272 22° Northeast 459 528 41,000  Level Atlanta Center
Fri 05:32:41 PM 34.0372 -84.5678 22° Northeast 459 528 41,000  Level Atlanta Center
Fri 05:33:41 PM 34.1775 -84.5008 22° Northeast 474 545 41,000  Level Atlanta Center
Fri 05:34:41 PM 34.2967 -84.4386 23° Northeast 473 544 41,000  Level Atlanta Center
Fri 05:35:41 PM 34.4158 -84.3761 23° Northeast 467 537 41,000  Level Atlanta Center
Fri 05:36:41 PM 34.5392 -84.3136 23° Northeast 467 537 41,000 50 Level Atlanta Center
Fri 05:37:41 PM 34.6561 -84.2433 26° Northeast 467 537 41,100 550 Climbing Atlanta Center
Fri 05:38:41 PM 34.7564 -84.1828 26° Northeast 456 525 42,100 900 Climbing Atlanta Center
Fri 05:39:41 PM 34.8711 -84.1147 26° Northeast 450 518 42,900 450 Climbing Atlanta Center
Fri 05:40:41 PM 34.9881 -84.0464 26° Northeast 450 518 43,000 50 Climbing Atlanta Center
Fri 05:41:41 PM 35.1047 -83.9753 26° Northeast 450 518 43,000  Level Atlanta Center
Fri 05:42:41 PM 35.2258 -83.9039 26° Northeast 465 535 43,000  Level Atlanta Center
Fri 05:43:41 PM 35.3489 -83.8275 27° Northeast 471 542 43,000  Level Atlanta Center
Fri 05:44:41 PM 35.4717 -83.7558 25° Northeast 476 548 43,000  Level Atlanta Center
Fri 05:45:41 PM 35.5925 -83.6811 27° Northeast 481 554 43,000  Level Atlanta Center
Fri 05:46:41 PM 35.7156 -83.6092 25° Northeast 481 554 43,000  Level Atlanta Center
Fri 05:47:41 PM 35.8361 -83.5342 27° Northeast 486 559 43,000  Level Atlanta Center
Fri 05:48:41 PM 35.9567 -83.4614 26° Northeast 486 559 43,000  Level Atlanta Center
Fri 05:50:50 PM 36.2067 -83.3072 26° Northeast 471 542 43,000  Level Indianapolis Center
Fri 05:51:52 PM 36.3425 -83.2228 27° Northeast 466 536 43,000  Level Indianapolis Center
Fri 05:52:54 PM 36.4603 -83.1500 26° Northeast 471 542 43,000  Level Indianapolis Center
Fri 05:53:56 PM 36.5794 -83.0761 26° Northeast 477 549 43,000  Level Indianapolis Center
Fri 05:54:58 PM 36.6969 -83.0028 27° Northeast 475 547 43,000  Level Indianapolis Center
Fri 05:56:00 PM 36.8250 -82.9225 27° Northeast 472 543 43,000  Level Indianapolis Center
Fri 05:57:02 PM 36.9469 -82.8514 25° Northeast 480 552 43,000  Level Indianapolis Center
Fri 05:58:04 PM 37.0617 -82.7733 28° Northeast 469 540 43,000  Level Indianapolis Center
Fri 05:59:06 PM 37.1786 -82.6997 27° Northeast 469 540 43,000  Level Indianapolis Center
Fri 06:00:08 PM 37.3147 -82.6139 27° Northeast 468 539 43,000  Level Indianapolis Center
Fri 06:01:10 PM 37.4317 -82.5406 26° Northeast 469 540 43,000  Level Indianapolis Center
Fri 06:02:12 PM 37.5472 -82.4664 27° Northeast 466 536 43,000  Level Indianapolis Center
Fri 06:03:14 PM 37.6633 -82.3908 27° Northeast 468 539 43,000  Level Indianapolis Center
Fri 06:04:17 PM 37.7797 -82.3144 27° Northeast 471 542 43,000  Level Indianapolis Center
Fri 06:05:19 PM 37.9175 -82.2267 27° Northeast 474 545 43,000  Level Indianapolis Center
Fri 06:06:21 PM 38.0300 -82.1542 27° Northeast 472 543 43,000  Level Indianapolis Center
Fri 06:07:23 PM 38.1464 -82.0769 28° Northeast 471 542 43,000  Level Indianapolis Center
Fri 06:08:25 PM 38.2633 -82.0014 27° Northeast 471 542 43,000  Level Indianapolis Center
Fri 06:09:27 PM 38.3781 -81.9250 28° Northeast 465 535 43,000  Level Indianapolis Center
Fri 06:10:29 PM 38.4933 -81.8494 27° Northeast 464 534 43,000  Level Indianapolis Center
Fri 06:11:31 PM 38.6319 -81.7581 27° Northeast 463 533 43,000  Level Indianapolis Center
Fri 06:12:33 PM 38.7444 -81.6811 28° Northeast 460 529 43,000  Level Indianapolis Center
Fri 06:13:35 PM 38.8683 -81.5989 27° Northeast 471 542 43,000  Level Indianapolis Center
Fri 06:14:37 PM 38.9853 -81.5211 27° Northeast 468 539 43,000  Level Indianapolis Center
Fri 06:15:39 PM 39.1008 -81.4422 28° Northeast 467 537 43,000  Level Indianapolis Center
Fri 06:16:41 PM 39.2172 -81.3633 28° Northeast 471 542 43,000  Level Indianapolis Center
Fri 06:17:43 PM 39.3333 -81.2850 28° Northeast 469 540 43,000  Level Indianapolis Center
Fri 06:18:45 PM 39.4500 -81.2061 28° Northeast 470 541 43,000  Level Indianapolis Center
Fri 06:19:47 PM 39.5656 -81.1256 28° Northeast 472 543 43,000  Level Indianapolis Center
Fri 06:20:45 PM 39.6911 -81.0497 25° Northeast 468 539 43,000 -407 Level Cleveland Center
Fri 06:21:45 PM 39.8100 -80.9803 24° Northeast 463 533 42,200 -1,100 Descending Cleveland Center
Fri 06:22:45 PM 39.9292 -80.9078 25° Northeast 463 533 40,800 -1,550 Descending Cleveland Center
Fri 06:23:45 PM 40.0461 -80.8381 25° Northeast 463 533 39,100 -1,700 Descending Cleveland Center
Fri 06:24:45 PM 40.1650 -80.7625 26° Northeast 463 533 37,400 -1,700 Descending Cleveland Center
Fri 06:25:45 PM 40.2839 -80.6892 25° Northeast 463 533 35,700 -1,750 Descending Cleveland Center
Fri 06:26:45 PM 40.4092 -80.6103 26° Northeast 468 539 33,900 -1,850 Descending Cleveland Center
Fri 06:27:45 PM 40.5319 -80.5339 25° Northeast 473 544 32,000 -1,450 Descending Cleveland Center
Fri 06:28:45 PM 40.6508 -80.4600 25° Northeast 473 544 31,000 -550 Descending Cleveland Center
Fri 06:29:45 PM 40.7736 -80.3831 25° Northeast 473 544 30,900 -1,000 Descending Cleveland Center
Fri 06:30:45 PM 40.8944 -80.3058 26° Northeast 473 544 29,000 -2,050 Descending Cleveland Center
Fri 06:31:45 PM 41.0150 -80.2308 25° Northeast 473 544 26,800 -2,050 Descending Cleveland Center
Fri 06:32:45 PM 41.1275 -80.1586 26° Northeast 468 539 24,900 -1,400 Descending Cleveland Center
Fri 06:33:45 PM 41.2419 -80.0861 25° Northeast 456 525 24,000 -450 Descending Cleveland Center
Fri 06:34:45 PM 41.3542 -80.0161 25° Northeast 445 512 24,000  Level Cleveland Center
Fri 06:35:45 PM 41.4767 -79.9375 26° Northeast 445 512 24,000  Level Cleveland Center
Fri 06:36:45 PM 41.5889 -79.8642 26° Northeast 445 512 24,000 -300 Level Cleveland Center
Fri 06:37:45 PM 41.6989 -79.7933 26° Northeast 445 512 23,400 -1,050 Descending Cleveland Center
Fri 06:38:45 PM 41.8047 -79.7253 26° Northeast 434 499 21,900 -1,500 Descending Cleveland Center
Fri 06:39:45 PM 41.9083 -79.6569 26° Northeast 415 478 20,400 -1,500 Descending Cleveland Center
Fri 06:40:45 PM 42.0119 -79.5911 25° Northeast 410 472 18,900 -1,250 Descending Cleveland Center
Fri 06:41:45 PM 42.1114 -79.5253 26° Northeast 400 460 17,900 -1,300 Descending Cleveland Center
Fri 06:42:45 PM 42.2025 -79.4647 26° Northeast 383 441 16,300 -1,700 Descending Cleveland Center
Fri 06:43:45 PM 42.2894 -79.4072 26° Northeast 358 412 14,500 -2,050 Descending Cleveland Center
Fri 06:44:45 PM 42.3764 -79.3494 26° Northeast 353 406 12,200 -1,900 Descending Cleveland Center
Fri 06:45:45 PM 42.4569 -79.2775 33° Northeast 341 392 10,700 -1,100 Descending Cleveland Center
Fri 06:46:45 PM 42.5183 -79.1719 52° Northeast 341 392 10,000 -350 Descending Cleveland Center
Fri 06:47:45 PM 42.5775 -79.0747 50° Northeast 358 412 10,000  Level Cleveland Center
Fri 06:48:45 PM 42.6467 -78.9572 51° Northeast 358 412 10,000 -100 Level Cleveland Center
Fri 06:49:45 PM 42.7017 -78.8656 51° Northeast 336 387 9,800 -650 Descending Cleveland Center
Fri 06:50:45 PM 42.7444 -78.7908 52° Northeast 279 321 8,700 -1,500 Descending Cleveland Center
Fri 06:51:45 PM 42.7811 -78.7331 49° Northeast 231 266 6,800 -2,057 Descending Cleveland Center
Fri 06:53:40 PM 42.8833 -78.6500 31° Northeast 206 237 2,700 -1,886 Descending Buffalo TRACON
Fri 06:54:40 PM 42.9167 -78.7000 312° West 151 174 1,300 -1,400 Descending Buffalo TRACON
Fri 06:56:00 PM 42.9333 -78.7167 346° North  Level FlightAware Approximate
Fri 07:03:00 PM 42.9404 -78.7306 346° North  Level Estimated

Login

Don't have an account? Register now (free) for customized features, flight alerts, and more!